Time;durP1;ratioP1;P1;durP2;ratioP2;P2;SDS_P1;SDS_P2;PMS_P1;PMS_P2;Temp;Humidity;BMP_temperature;BMP_pressure;BME280_temperature;BME280_humidity;BME280_pressure;Samples;Min_cycle;Max_cycle;Signal;HPM_P1;HPM_P2
2022/07/30 00:03:59;;;;;;;2.22;1.30;;;;;;;19.63;55.72;96836.31;10324835;28;20101;-26
2022/07/30 00:09:00;;;;;;;3.73;1.63;;;;;;;19.59;55.60;96827.03;10323250;28;20582;-26
2022/07/30 00:14:01;;;;;;;1.55;1.38;;;;;;;19.59;55.82;96832.09;10321005;28;20496;-25
2022/07/30 00:19:02;;;;;;;3.60;2.17;;;;;;;19.58;55.37;96831.25;10324720;28;20042;-26
2022/07/30 00:24:04;;;;;;;2.10;1.63;;;;;;;19.56;55.43;96827.88;10322085;28;20037;-26
2022/07/30 00:29:04;;;;;;;5.30;2.65;;;;;;;19.55;55.22;96830.41;10323440;28;20101;-25
2022/07/30 00:34:05;;;;;;;1.95;1.73;;;;;;;19.45;55.53;96833.81;10324189;28;20065;-25
2022/07/30 00:39:06;;;;;;;4.05;1.77;;;;;;;19.44;56.02;96824.50;10318493;28;20041;-25
2022/07/30 00:44:06;;;;;;;4.50;1.42;;;;;;;19.43;55.81;96826.19;10323567;28;20408;-24
2022/07/30 00:49:06;;;;;;;2.20;1.50;;;;;;;19.33;56.36;96822.00;10320722;28;20033;-25
2022/07/30 00:54:07;;;;;;;1.43;1.10;;;;;;;19.34;56.56;96830.47;10321296;28;20672;-25
2022/07/30 00:59:07;;;;;;;3.23;1.73;;;;;;;19.36;55.91;96838.91;10318470;28;20418;-25
2022/07/30 01:04:10;;;;;;;3.67;2.00;;;;;;;19.39;56.19;96831.28;10322542;28;20293;-25
2022/07/30 01:09:11;;;;;;;2.22;1.30;;;;;;;19.37;56.15;96838.06;10326941;28;20411;-24
2022/07/30 01:14:12;;;;;;;5.63;1.65;;;;;;;19.26;56.07;96829.63;10330938;28;20077;-25
2022/07/30 01:24:43;;;;;;;3.70;1.50;;;;;;;19.30;55.76;96838.91;10327336;28;20105;-25
2022/07/30 01:29:45;;;;;;;4.18;1.40;;;;;;;19.32;55.87;96839.75;10330112;28;20046;-25
2022/07/30 01:34:46;;;;;;;4.68;1.50;;;;;;;19.29;56.30;96842.31;10329312;28;20117;-25
2022/07/30 01:39:48;;;;;;;2.97;1.27;;;;;;;19.29;55.97;96839.78;10324845;28;20117;-25
2022/07/30 01:44:49;;;;;;;2.00;1.65;;;;;;;19.16;56.19;96831.28;10328731;28;20056;-25
2022/07/30 01:49:52;;;;;;;4.15;2.10;;;;;;;19.23;56.23;96832.16;10330048;28;20053;-25
2022/07/30 01:54:55;;;;;;;5.60;1.88;;;;;;;19.22;56.39;96838.06;10326986;28;20046;-26
2022/07/30 02:00:00;;;;;;;3.63;1.55;;;;;;;19.21;56.34;96836.41;10327374;28;20034;-26
2022/07/30 02:05:01;;;;;;;2.90;1.70;;;;;;;19.15;56.25;96843.97;10325725;28;20037;-25
2022/07/30 02:10:11;;;;;;;3.00;1.60;;;;;;;19.18;56.62;96844.00;10325184;28;20034;-25
2022/07/30 02:15:25;;;;;;;3.05;1.77;;;;;;;19.13;57.04;96850.75;10324694;28;20129;-25
2022/07/30 02:20:29;;;;;;;2.88;1.60;;;;;;;19.09;56.99;96842.28;10325186;28;20031;-25
2022/07/30 02:25:33;;;;;;;3.13;1.88;;;;;;;19.14;56.79;96845.69;10326414;28;20036;-25
2022/07/30 02:30:39;;;;;;;4.10;1.60;;;;;;;19.18;56.84;96849.88;10315111;28;20034;-26
2022/07/30 02:35:40;;;;;;;2.53;1.63;;;;;;;19.15;56.86;96854.13;10321110;28;20121;-26
2022/07/30 02:40:42;;;;;;;2.75;1.60;;;;;;;19.12;57.04;96864.28;10326671;28;20068;-25
2022/07/30 02:45:45;;;;;;;2.70;1.80;;;;;;;19.03;57.89;96859.22;10322641;28;20030;-25
2022/07/30 02:50:49;;;;;;;3.92;2.10;;;;;;;19.02;57.46;96857.53;10324680;28;20034;-25
2022/07/30 02:55:53;;;;;;;3.67;2.00;;;;;;;18.94;57.86;96861.75;10324869;28;20360;-25
2022/07/30 03:00:55;;;;;;;2.05;1.65;;;;;;;18.88;58.17;96861.75;10323760;28;20038;-25
2022/07/30 03:05:58;;;;;;;5.25;2.25;;;;;;;18.82;58.11;96849.06;10320953;28;20026;-25
2022/07/30 03:10:59;;;;;;;5.45;1.80;;;;;;;18.86;58.38;96866.84;10325331;28;20408;-25
2022/07/30 03:16:03;;;;;;;6.05;2.10;;;;;;;18.84;58.31;96867.66;10324303;28;20054;-25
2022/07/30 03:21:06;;;;;;;2.72;1.65;;;;;;;18.92;58.13;96868.53;10323094;28;20038;-26
2022/07/30 03:26:08;;;;;;;3.28;2.00;;;;;;;18.74;58.86;96871.06;10324807;28;20137;-25
2022/07/30 03:31:10;;;;;;;3.92;1.90;;;;;;;18.75;58.69;96870.19;10314518;28;20515;-25
2022/07/30 03:36:12;;;;;;;4.38;2.25;;;;;;;18.74;58.68;96876.13;10318662;28;20036;-26
2022/07/30 03:41:14;;;;;;;2.85;2.20;;;;;;;18.66;59.31;96877.78;10323018;28;20030;-25
2022/07/30 03:46:18;;;;;;;3.40;1.90;;;;;;;18.71;59.00;96888.78;10323441;28;20042;-24
2022/07/30 03:51:23;;;;;;;5.60;2.55;;;;;;;18.67;59.52;96899.78;10304398;28;20125;-25
2022/07/30 03:56:24;;;;;;;4.57;2.08;;;;;;;18.68;59.42;96886.25;10324940;28;20030;-25
2022/07/30 04:01:33;;;;;;;3.45;2.10;;;;;;;18.72;58.89;96903.16;10322093;28;20047;-25
2022/07/30 04:06:41;;;;;;;8.35;2.63;;;;;;;18.87;58.26;96904.03;10321495;28;20548;-25
2022/07/30 04:11:42;;;;;;;5.90;2.53;;;;;;;18.89;58.50;96901.47;10323213;28;20093;-25
2022/07/30 04:17:02;;;;;;;3.58;2.40;;;;;;;18.78;59.23;96898.09;10321949;28;20475;-25
2022/07/30 04:22:04;;;;;;;;;;;;;;;18.75;59.14;96905.72;10320835;28;20035;-25
2022/07/30 04:27:08;;;;;;;3.42;2.13;;;;;;;18.71;59.52;96904.00;10323092;28;20308;-25
2022/07/30 04:32:08;;;;;;;3.50;2.45;;;;;;;18.71;59.51;96901.47;10303908;28;20038;-24
2022/07/30 04:37:34;;;;;;;5.32;2.60;;;;;;;18.68;60.11;96909.06;10331209;28;20129;-25
2022/07/30 04:42:34;;;;;;;3.45;2.30;;;;;;;18.68;60.20;96912.44;10328958;28;20038;-26
2022/07/30 04:47:40;;;;;;;5.70;2.35;;;;;;;18.73;59.85;96931.06;10329938;28;20230;-25
2022/07/30 04:53:01;;;;;;;4.65;2.38;;;;;;;18.64;59.94;96927.63;10313967;28;20030;-28
2022/07/30 04:58:07;;;;;;;6.20;2.87;;;;;;;18.63;60.44;96938.63;10332122;28;20030;-24
2022/07/30 05:03:13;;;;;;;4.68;2.45;;;;;;;18.78;59.91;96938.69;10327664;28;20084;-24
2022/07/30 05:08:16;;;;;;;4.03;2.78;;;;;;;18.85;59.68;96935.31;10327972;28;20030;-25
2022/07/30 05:13:17;;;;;;;8.25;3.00;;;;;;;18.75;60.42;96938.69;10330176;28;20042;-25
2022/07/30 05:18:17;;;;;;;9.23;3.20;;;;;;;18.74;60.33;96937.81;10321112;28;20034;-25
2022/07/30 05:23:18;;;;;;;6.90;3.10;;;;;;;18.80;61.00;96939.53;10328561;28;20045;-25
2022/07/30 05:28:26;;;;;;;7.35;3.25;;;;;;;18.82;60.60;96938.69;10328788;28;20282;-25
2022/07/30 05:33:26;;;;;;;5.45;3.25;;;;;;;18.85;60.83;96948.81;10328681;28;20516;-25
2022/07/30 05:38:28;;;;;;;7.40;3.45;;;;;;;18.85;60.85;96932.78;10326247;28;20030;-25
2022/07/30 05:44:07;;;;;;;6.03;3.22;;;;;;;18.84;60.81;96938.69;10282723;28;20078;-25
2022/07/30 05:49:07;;;;;;;5.63;3.30;;;;;;;18.94;60.89;96943.81;10310036;28;20150;-25
2022/07/30 05:54:08;;;;;;;6.03;3.03;;;;;;;18.98;60.77;96939.53;10326015;28;20030;-25
2022/07/30 05:59:45;;;;;;;5.72;3.45;;;;;;;18.99;61.16;96938.72;10315767;28;20062;-25
2022/07/30 06:04:52;;;;;;;3.45;2.80;;;;;;;19.01;61.33;96926.88;10326864;28;20523;-25
2022/07/30 06:09:53;;;;;;;7.15;2.80;;;;;;;19.01;61.54;96937.03;10326340;28;20033;-25
2022/07/30 06:14:54;;;;;;;4.25;2.78;;;;;;;19.09;61.49;96931.09;10326390;28;20045;-25
2022/07/30 06:20:00;;;;;;;4.13;2.87;;;;;;;19.21;61.38;96940.47;10326016;28;20555;-26
2022/07/30 06:25:01;;;;;;;4.03;2.45;;;;;;;19.29;61.19;96943.84;10341739;28;20030;-26
2022/07/30 06:30:04;;;;;;;3.28;2.95;;;;;;;19.40;61.60;96954.84;10327606;28;20030;-25
2022/07/30 06:35:05;;;;;;;5.75;3.25;;;;;;;19.49;61.10;96953.16;10307420;28;20120;-26
2022/07/30 06:40:06;;;;;;;4.88;3.10;;;;;;;19.54;61.10;96948.09;10322360;28;20057;-26
2022/07/30 06:45:42;;;;;;;5.03;3.08;;;;;;;19.65;61.12;96949.78;10320222;28;20434;-25
2022/07/30 06:50:51;;;;;;;6.40;3.67;;;;;;;19.78;60.16;96945.53;10319853;28;20038;-25
2022/07/30 06:55:51;;;;;;;5.83;3.10;;;;;;;19.78;60.58;96956.53;10324465;28;20039;-26
2022/07/30 07:00:53;;;;;;;5.03;2.88;;;;;;;19.86;60.42;96969.22;10321993;28;20813;-26
2022/07/30 07:05:55;;;;;;;6.28;3.67;;;;;;;19.85;60.31;96958.19;10320243;28;20022;-26
2022/07/30 07:10:56;;;;;;;5.68;3.33;;;;;;;19.91;59.60;96970.06;10321727;28;20027;-26
2022/07/30 07:16:02;;;;;;;6.38;3.50;;;;;;;20.01;58.51;96969.19;10319747;28;20026;-26
2022/07/30 07:21:04;;;;;;;6.90;3.10;;;;;;;20.01;58.53;96964.13;10322550;28;20041;-26
2022/07/30 07:26:05;;;;;;;7.55;3.30;;;;;;;20.20;59.22;96975.97;10324879;28;20034;-26
2022/07/30 07:31:07;;;;;;;6.07;3.30;;;;;;;20.18;58.44;96972.59;10320079;28;20030;-26
2022/07/30 07:36:08;;;;;;;5.72;2.92;;;;;;;20.20;58.26;96959.03;10314950;28;20029;-26
2022/07/30 07:41:09;;;;;;;5.40;3.07;;;;;;;20.23;58.68;96973.41;10292803;28;20041;-26
2022/07/30 07:46:15;;;;;;;8.70;3.50;;;;;;;20.46;58.14;96975.03;10321760;28;20042;-25
2022/07/30 07:51:15;;;;;;;6.18;3.20;;;;;;;20.49;57.79;96972.47;10321922;28;20035;-26
2022/07/30 07:56:15;;;;;;;9.07;3.87;;;;;;;20.42;57.80;96972.50;10324578;28;20039;-26
2022/07/30 08:01:16;;;;;;;11.10;4.28;;;;;;;20.62;58.33;96977.50;10321853;28;20092;-25
2022/07/30 08:06:43;;;;;;;5.68;3.10;;;;;;;20.47;57.07;96982.63;10311180;28;20050;-25
2022/07/30 08:12:03;;;;;;;5.05;2.92;;;;;;;20.90;56.51;96973.97;10324412;28;20117;-26
2022/07/30 08:17:26;;;;;;;5.22;2.88;;;;;;;20.77;56.62;96979.13;10321382;28;20412;-27
2022/07/30 08:22:46;;;;;;;4.68;2.92;;;;;;;20.63;56.29;96970.72;10320127;28;20066;-26
2022/07/30 08:27:46;;;;;;;3.77;2.97;;;;;;;20.89;56.48;96972.28;10322318;28;20037;-25
2022/07/30 08:32:46;;;;;;;4.05;2.80;;;;;;;21.19;54.27;96968.72;10326957;28;20061;-26
2022/07/30 08:37:47;;;;;;;7.23;2.40;;;;;;;21.39;51.83;96969.44;10316754;28;20460;-25
2022/07/30 08:42:49;;;;;;;3.97;2.28;;;;;;;21.30;52.63;96975.44;10319885;28;20380;-26
2022/07/30 08:47:51;;;;;;;3.70;2.40;;;;;;;21.35;52.14;96972.84;10324385;28;20141;-26
2022/07/30 08:53:01;;;;;;;7.20;2.15;;;;;;;21.13;51.90;96977.25;10316301;28;20040;-26
2022/07/30 08:58:04;;;;;;;5.45;2.28;;;;;;;20.98;52.77;96979.88;10325944;28;20034;-27
2022/07/30 09:03:04;;;;;;;3.85;2.30;;;;;;;21.26;51.92;96962.72;10315227;28;20488;-25
2022/07/30 09:08:05;;;;;;;4.90;1.97;;;;;;;20.95;51.61;96967.19;10317117;28;20044;-26
2022/07/30 09:13:22;;;;;;;6.55;2.00;;;;;;;21.35;51.17;96963.53;10321616;28;20041;-26
2022/07/30 09:18:35;;;;;;;4.28;1.88;;;;;;;21.47;50.80;96983.78;10318910;28;20038;-26
2022/07/30 09:23:37;;;;;;;5.53;2.05;;;;;;;21.41;51.29;96978.75;10312825;28;20030;-26
2022/07/30 09:29:17;;;;;;;4.80;1.90;;;;;;;21.07;52.45;96976.44;10321232;28;20081;-26
2022/07/30 09:34:38;;;;;;;4.85;2.53;;;;;;;21.01;52.56;96973.94;10328981;28;20475;-27
2022/07/30 09:39:40;;;;;;;3.85;1.70;;;;;;;21.06;52.15;96985.78;10325102;28;20516;-26
2022/07/30 09:44:48;;;;;;;4.47;1.65;;;;;;;21.06;52.16;96982.41;10318357;28;20047;-26
2022/07/30 09:50:02;;;;;;;2.50;1.98;;;;;;;20.96;53.55;96973.97;10328165;28;20417;-25
2022/07/30 09:55:04;;;;;;;6.18;2.30;;;;;;;20.88;53.84;96980.78;10327799;28;20113;-26
2022/07/30 10:00:22;;;;;;;3.92;1.95;;;;;;;20.83;54.18;96979.94;10325724;28;20037;-28
2022/07/30 10:05:34;;;;;;;5.05;2.20;;;;;;;20.79;54.52;96975.72;10323368;28;20113;-26
2022/07/30 10:10:34;;;;;;;7.05;1.88;;;;;;;20.78;54.75;96963.84;10327565;28;20036;-26
2022/07/30 10:15:35;;;;;;;6.72;1.98;;;;;;;20.78;54.83;96963.00;10321056;28;20500;-26
2022/07/30 10:20:38;;;;;;;2.78;1.85;;;;;;;20.90;54.38;96973.97;10318782;28;20034;-26
2022/07/30 10:26:02;;;;;;;3.08;2.10;;;;;;;20.99;54.23;96960.38;10324399;28;20416;-26
2022/07/30 10:31:15;;;;;;;2.78;1.90;;;;;;;20.92;54.85;96964.66;10326361;28;20548;-26
2022/07/30 10:36:16;;;;;;;5.15;1.90;;;;;;;20.89;54.83;96971.47;10325771;28;20041;-26
2022/07/30 10:41:51;;;;;;;2.35;1.70;;;;;;;20.84;55.04;96963.81;10319841;28;20038;-26
2022/07/30 10:46:51;;;;;;;1.80;1.70;;;;;;;20.78;55.51;96963.00;10326562;28;20042;-26
2022/07/30 10:51:55;;;;;;;3.17;1.80;;;;;;;20.72;55.79;96948.59;10324292;28;20042;-25
2022/07/30 10:57:25;;;;;;;1.95;1.80;;;;;;;20.76;55.96;96954.53;10323179;28;20049;-25
2022/07/30 11:02:28;;;;;;;5.68;1.83;;;;;;;20.83;55.00;96951.97;10321672;28;20059;-26
2022/07/30 11:07:30;;;;;;;3.72;1.60;;;;;;;20.99;54.47;96952.75;10323793;28;20060;-25
2022/07/30 11:12:54;;;;;;;2.08;1.88;;;;;;;20.97;54.57;96955.28;10321938;28;20108;-25
2022/07/30 11:17:59;;;;;;;4.75;2.28;;;;;;;20.89;55.41;96951.94;10313700;28;20046;-27
2022/07/30 11:23:18;;;;;;;6.53;2.00;;;;;;;20.87;55.32;96943.47;10323674;28;20038;-27
2022/07/30 11:28:53;;;;;;;3.92;1.70;;;;;;;20.83;55.42;96931.59;10318934;28;20031;-26
2022/07/30 11:34:18;;;;;;;5.68;2.30;;;;;;;20.84;55.53;96938.38;10262367;28;20538;-25
2022/07/30 11:39:19;;;;;;;6.03;1.60;;;;;;;20.85;55.52;96940.06;10313518;28;20042;-25
2022/07/30 11:44:27;;;;;;;4.90;2.00;;;;;;;20.85;55.60;96942.59;10322417;28;20069;-26
2022/07/30 11:49:34;;;;;;;5.10;1.60;;;;;;;20.95;54.93;96929.00;10322585;28;20492;-26
2022/07/30 11:54:53;;;;;;;3.65;1.60;;;;;;;21.13;54.80;96931.41;10320974;28;20042;-26
2022/07/30 11:59:55;;;;;;;4.40;1.50;;;;;;;21.07;55.27;96934.00;10322295;28;20042;-26
2022/07/30 12:04:55;;;;;;;5.63;1.92;;;;;;;20.97;55.65;96940.00;10325311;28;20756;-25
2022/07/30 12:10:16;;;;;;;4.57;2.00;;;;;;;20.92;55.76;96939.22;10321143;28;20034;-25
2022/07/30 12:15:31;;;;;;;4.32;1.83;;;;;;;20.89;55.92;96936.66;10319013;28;20460;-25
2022/07/30 12:20:32;;;;;;;4.32;2.00;;;;;;;20.86;56.06;96926.50;10318734;28;20031;-26
2022/07/30 12:25:45;;;;;;;2.63;2.00;;;;;;;20.82;56.18;96926.50;10323512;28;20034;-25
2022/07/30 12:30:46;;;;;;;4.47;2.05;;;;;;;21.16;55.92;96933.97;10320646;28;20065;-25
2022/07/30 12:35:48;;;;;;;6.15;1.80;;;;;;;21.04;56.13;96936.56;10317966;28;20038;-25
2022/07/30 12:40:55;;;;;;;3.97;1.60;;;;;;;21.20;55.37;96927.97;10323835;28;20049;-26
2022/07/30 12:45:59;;;;;;;4.20;2.38;;;;;;;21.15;55.63;96929.69;10320260;28;20029;-26
2022/07/30 12:51:06;;;;;;;4.95;2.28;;;;;;;21.05;56.01;96924.72;10311029;28;20049;-27
2022/07/30 12:56:15;;;;;;;5.65;2.30;;;;;;;20.97;56.08;96917.09;10318702;28;20030;-25
2022/07/30 13:01:16;;;;;;;4.50;2.30;;;;;;;20.94;56.19;96914.59;10319283;28;20125;-26
2022/07/30 13:06:19;;;;;;;10.45;2.65;;;;;;;20.88;56.85;96914.63;10325664;28;20034;-26
2022/07/30 13:11:22;;;;;;;8.70;2.67;;;;;;;20.79;57.27;96904.47;10334105;28;20042;-26
2022/07/30 13:16:23;;;;;;;9.95;2.42;;;;;;;20.91;57.00;96906.13;10323788;28;20031;-26
2022/07/30 13:21:24;;;;;;;8.80;2.70;;;;;;;21.08;55.83;96901.75;10321724;28;20034;-26
2022/07/30 13:26:25;;;;;;;5.75;2.72;;;;;;;21.14;55.73;96911.91;10330884;28;20608;-25
2022/07/30 13:31:25;;;;;;;8.13;2.60;;;;;;;21.10;56.24;96910.22;10323272;28;20149;-26
2022/07/30 13:36:25;;;;;;;5.15;2.75;;;;;;;21.05;56.54;96917.91;10326191;28;20042;-26
2022/07/30 13:41:27;;;;;;;4.73;2.60;;;;;;;21.00;56.65;96903.50;10338843;28;20042;-26
2022/07/30 13:46:27;;;;;;;5.40;2.20;;;;;;;20.96;56.85;96902.69;10323311;28;20073;-25
2022/07/30 13:51:27;;;;;;;5.80;2.23;;;;;;;20.94;57.05;96903.53;10324887;28;20486;-26
2022/07/30 13:56:28;;;;;;;7.30;1.80;;;;;;;20.94;56.87;96890.81;10325825;28;20405;-26
2022/07/30 14:01:28;;;;;;;2.80;1.95;;;;;;;21.04;56.02;96885.66;10321738;28;20104;-25
2022/07/30 14:06:28;;;;;;;6.03;2.20;;;;;;;21.12;55.93;96881.34;10321223;28;20039;-26
2022/07/30 14:11:30;;;;;;;8.00;1.83;;;;;;;21.20;55.93;96876.19;10326042;28;20116;-27
2022/07/30 14:16:30;;;;;;;6.90;1.95;;;;;;;21.10;56.21;96872.88;10325257;28;21138;-27
2022/07/30 14:21:31;;;;;;;4.90;2.00;;;;;;;21.20;58.04;96866.84;10323149;28;20101;-26
2022/07/30 14:26:31;;;;;;;3.10;1.80;;;;;;;21.27;57.40;96863.41;10328358;28;20034;-26
2022/07/30 14:31:32;;;;;;;5.03;2.00;;;;;;;21.14;57.38;96866.06;10326738;28;20045;-26
2022/07/30 14:36:33;;;;;;;4.93;1.88;;;;;;;21.01;57.69;96870.41;10323246;28;20412;-27
2022/07/30 14:41:36;;;;;;;2.25;1.83;;;;;;;21.02;56.80;96867.00;10322279;28;20034;-25
2022/07/30 14:46:37;;;;;;;3.17;1.80;;;;;;;21.21;55.76;96873.63;10326385;28;20042;-26
2022/07/30 14:51:37;;;;;;;4.82;1.90;;;;;;;21.25;55.95;96871.91;10324658;28;20144;-26
2022/07/30 14:56:38;;;;;;;6.33;1.80;;;;;;;21.18;56.37;96868.59;10329262;28;20113;-26
2022/07/30 15:01:38;;;;;;;4.68;1.88;;;;;;;21.12;56.48;96878.81;10323021;28;20042;-26
2022/07/30 15:06:40;;;;;;;2.67;1.70;;;;;;;21.10;56.92;96892.41;10324235;28;20038;-26
2022/07/30 15:11:40;;;;;;;1.42;1.33;;;;;;;21.16;56.34;96890.69;10325784;28;20289;-26
2022/07/30 15:16:41;;;;;;;5.33;1.90;;;;;;;21.16;56.28;96884.72;10324044;28;20039;-27
2022/07/30 15:21:43;;;;;;;3.53;1.75;;;;;;;21.17;56.08;96877.09;10321306;28;20034;-26
2022/07/30 15:26:43;;;;;;;3.15;1.90;;;;;;;21.18;55.81;96878.78;10325657;28;20619;-26
2022/07/30 15:31:44;;;;;;;5.23;1.80;;;;;;;21.30;55.75;96870.19;10320494;28;20046;-26
2022/07/30 15:36:44;;;;;;;3.70;2.15;;;;;;;21.38;55.67;96876.06;10320602;28;20145;-26
2022/07/30 15:41:45;;;;;;;4.70;2.23;;;;;;;21.29;56.03;96871.88;10325954;28;20038;-26
2022/07/30 15:46:45;;;;;;;3.17;2.47;;;;;;;21.14;56.82;96876.25;10324139;28;20034;-26
2022/07/30 15:51:48;;;;;;;13.07;2.57;;;;;;;21.08;56.69;96861.88;10322510;28;20042;-26
2022/07/30 15:56:50;;;;;;;5.47;2.38;;;;;;;21.08;56.81;96861.88;10324576;28;20030;-27
2022/07/30 16:01:51;;;;;;;3.58;1.80;;;;;;;21.01;57.01;96855.16;10321550;28;20121;-25
2022/07/30 16:06:55;;;;;;;8.63;2.53;;;;;;;21.02;57.25;96856.84;10320555;28;20036;-27
2022/07/30 16:11:57;;;;;;;8.75;2.50;;;;;;;21.03;57.16;96852.56;10323957;28;20635;-26
2022/07/30 16:16:57;;;;;;;4.68;2.20;;;;;;;21.18;55.95;96858.41;10324021;28;20053;-26
2022/07/30 16:21:58;;;;;;;4.93;2.60;;;;;;;21.30;55.78;96860.81;10319747;28;20049;-27
2022/07/30 16:26:58;;;;;;;3.63;2.20;;;;;;;21.25;56.52;96854.09;10325169;28;20026;-27
2022/07/30 16:31:59;;;;;;;3.90;2.30;;;;;;;21.14;56.78;96844.00;10323875;28;20076;-27
2022/07/30 16:36:59;;;;;;;6.03;2.90;;;;;;;21.09;57.03;96838.09;10321946;28;20034;-26
2022/07/30 16:42:00;;;;;;;5.93;2.10;;;;;;;21.08;56.89;96849.16;10327196;28;20046;-26
2022/07/30 16:47:00;;;;;;;4.47;2.55;;;;;;;21.06;57.18;96847.47;10325040;28;20085;-27
2022/07/30 16:52:00;;;;;;;2.83;2.00;;;;;;;21.04;57.31;96847.47;10322991;28;20031;-27
2022/07/30 16:57:02;;;;;;;2.27;1.80;;;;;;;21.04;57.44;96855.09;10325853;28;20078;-27
2022/07/30 17:02:03;;;;;;;4.50;1.83;;;;;;;21.11;56.97;96855.91;10327783;28;20845;-26
2022/07/30 17:07:03;;;;;;;2.92;2.00;;;;;;;21.30;56.08;96860.81;10328370;28;20026;-27
2022/07/30 17:12:05;;;;;;;2.72;2.17;;;;;;;21.34;56.39;96859.09;10322672;28;20034;-26
2022/07/30 17:17:05;;;;;;;2.92;2.08;;;;;;;21.21;56.71;96855.81;10317405;28;20058;-27
2022/07/30 17:22:06;;;;;;;2.78;2.20;;;;;;;21.14;56.91;96853.34;10324529;28;20149;-27
2022/07/30 17:27:06;;;;;;;4.20;2.13;;;;;;;21.08;57.22;96854.25;10329187;28;20034;-26
2022/07/30 17:32:07;;;;;;;5.90;2.20;;;;;;;21.03;57.35;96843.25;10318154;28;20046;-26
2022/07/30 17:37:07;;;;;;;7.22;2.50;;;;;;;21.05;57.56;96851.69;10313077;28;20294;-26
2022/07/30 17:42:09;;;;;;;8.00;2.67;;;;;;;21.07;57.44;96849.97;10314086;28;20068;-27
2022/07/30 17:47:09;;;;;;;7.68;2.08;;;;;;;21.10;57.34;96854.22;10324264;28;20779;-28
2022/07/30 17:52:10;;;;;;;4.35;2.00;;;;;;;21.26;56.98;96851.53;10319378;28;20040;-26
2022/07/30 17:57:11;;;;;;;6.97;2.67;;;;;;;21.30;56.83;96863.38;10328717;28;20042;-26
2022/07/30 18:02:11;;;;;;;7.93;2.30;;;;;;;21.30;56.83;96860.81;10318558;28;20062;-26
2022/07/30 18:07:11;;;;;;;3.53;2.10;;;;;;;21.19;57.12;96864.31;10325068;28;20034;-26
2022/07/30 18:12:12;;;;;;;2.20;2.00;;;;;;;21.12;57.22;96858.44;10330413;28;20042;-26
2022/07/30 18:17:12;;;;;;;2.77;2.10;;;;;;;21.08;57.41;96866.97;10315558;28;20039;-26
2022/07/30 18:22:12;;;;;;;2.67;2.30;;;;;;;21.06;57.32;96876.31;10317348;28;20038;-26
2022/07/30 18:27:13;;;;;;;3.23;2.30;;;;;;;21.07;57.74;96875.44;10321933;28;20038;-26
2022/07/30 18:32:13;;;;;;;3.30;2.03;;;;;;;21.04;57.67;96885.66;10321302;28;20035;-26
2022/07/30 18:37:13;;;;;;;5.67;2.07;;;;;;;21.17;57.50;96887.28;10325702;28;20061;-25
2022/07/30 18:42:14;;;;;;;4.07;2.30;;;;;;;21.30;56.94;96883.75;10331374;28;20050;-26
2022/07/30 18:47:14;;;;;;;3.73;2.10;;;;;;;21.34;56.82;96893.06;10322581;28;20508;-26
2022/07/30 18:52:15;;;;;;;3.60;2.57;;;;;;;21.20;57.07;96892.31;10330122;28;20297;-26
2022/07/30 18:57:15;;;;;;;5.35;2.28;;;;;;;21.11;57.25;96902.59;10323674;28;20648;-27
2022/07/30 19:02:16;;;;;;;4.87;1.97;;;;;;;21.08;57.48;96892.44;10321231;28;20408;-27
2022/07/30 19:07:17;;;;;;;4.47;2.70;;;;;;;21.08;57.35;96897.53;10325388;28;20026;-26
2022/07/30 19:12:17;;;;;;;4.65;2.45;;;;;;;21.06;57.61;96904.31;10324847;28;20058;-26
2022/07/30 19:17:18;;;;;;;3.33;2.67;;;;;;;21.05;57.74;96907.72;10316392;28;20058;-26
2022/07/30 19:22:19;;;;;;;2.95;2.20;;;;;;;21.08;57.53;96907.72;10320588;28;20034;-25
2022/07/30 19:27:19;;;;;;;4.18;2.55;;;;;;;21.26;58.04;96922.84;10320816;28;20054;-27
2022/07/30 19:32:19;;;;;;;3.83;2.67;;;;;;;21.40;57.75;96918.47;10320839;28;20141;-26
2022/07/30 19:37:20;;;;;;;2.20;1.93;;;;;;;21.33;57.14;96927.03;10316585;28;20065;-27
2022/07/30 19:42:20;;;;;;;4.50;1.87;;;;;;;21.22;57.42;96941.53;10319091;28;20293;-26
2022/07/30 19:47:24;;;;;;;3.83;2.30;;;;;;;21.17;57.50;96947.53;10319822;28;20045;-27
2022/07/30 19:52:25;;;;;;;4.05;1.88;;;;;;;21.15;57.53;96949.25;10315548;28;20053;-27
2022/07/30 19:57:25;;;;;;;5.00;1.80;;;;;;;21.11;57.73;96948.41;10315710;28;20096;-26
2022/07/30 20:02:25;;;;;;;2.63;1.93;;;;;;;21.11;57.71;96958.59;10318673;28;20543;-26
2022/07/30 20:07:26;;;;;;;3.13;1.97;;;;;;;21.13;57.74;96961.97;10318134;28;20027;-27
2022/07/30 20:12:26;;;;;;;4.43;2.30;;;;;;;21.11;57.48;96956.06;10318568;28;20057;-27
2022/07/30 20:17:26;;;;;;;5.50;2.50;;;;;;;21.33;57.29;96955.06;10319770;28;20034;-26
2022/07/30 20:22:27;;;;;;;3.73;1.73;;;;;;;21.39;56.93;96965.19;10318602;28;20048;-27
2022/07/30 20:27:28;;;;;;;2.30;1.70;;;;;;;21.32;57.30;96971.16;10323886;28;20034;-26
2022/07/30 20:32:28;;;;;;;2.13;1.93;;;;;;;21.22;57.28;96969.53;10320434;28;20044;-27
2022/07/30 20:37:28;;;;;;;2.60;1.77;;;;;;;21.16;57.33;96976.38;10319476;28;20050;-27
2022/07/30 20:42:29;;;;;;;2.47;1.87;;;;;;;21.15;57.59;96980.63;10324202;28;20668;-27
2022/07/30 20:47:30;;;;;;;4.43;2.30;;;;;;;21.14;57.55;96989.13;10322653;28;20293;-26
2022/07/30 20:52:30;;;;;;;2.30;1.70;;;;;;;21.13;57.55;96987.44;10321506;28;20049;-29
2022/07/30 20:57:30;;;;;;;2.60;2.17;;;;;;;21.13;57.68;96989.16;10324064;28;20045;-28
2022/07/30 21:02:31;;;;;;;3.03;2.03;;;;;;;21.15;57.68;96984.88;10323114;28;20050;-27
2022/07/30 21:07:31;;;;;;;2.67;1.67;;;;;;;21.36;56.89;96989.81;10319743;28;20041;-27
2022/07/30 21:12:31;;;;;;;2.93;2.33;;;;;;;21.42;56.57;96999.97;10323640;28;20039;-27
2022/07/30 21:17:33;;;;;;;2.37;1.67;;;;;;;21.31;56.77;97007.69;10321198;28;20451;-27
2022/07/30 21:22:33;;;;;;;2.30;1.80;;;;;;;21.22;57.18;97005.19;10321313;28;20497;-27
2022/07/30 21:27:34;;;;;;;3.93;2.03;;;;;;;21.18;57.38;97003.53;10329074;28;20061;-27
2022/07/30 21:32:34;;;;;;;1.85;1.58;;;;;;;21.11;57.58;96996.78;10326638;28;20038;-27
2022/07/30 21:37:35;;;;;;;2.53;1.50;;;;;;;21.14;57.40;97006.94;10325367;28;20400;-27
2022/07/30 21:42:36;;;;;;;1.73;1.63;;;;;;;21.14;57.71;97001.84;10330842;28;20087;-27
2022/07/30 21:47:38;;;;;;;2.83;1.57;;;;;;;21.14;57.37;96995.94;10328236;28;20443;-26
2022/07/30 21:52:39;;;;;;;2.95;1.90;;;;;;;21.18;57.00;97008.63;10320723;28;20328;-26
2022/07/30 21:57:39;;;;;;;2.03;1.70;;;;;;;21.38;55.97;97006.78;10330626;28;20447;-26
2022/07/30 22:02:40;;;;;;;2.75;1.65;;;;;;;21.43;56.23;97015.25;10328904;28;20650;-25
2022/07/30 22:07:40;;;;;;;4.68;1.83;;;;;;;21.30;56.58;97016.19;10326279;28;20058;-26
2022/07/30 22:12:41;;;;;;;2.87;1.50;;;;;;;21.24;56.76;97013.66;10329783;28;20042;-26
2022/07/30 22:17:41;;;;;;;3.20;1.80;;;;;;;21.21;57.16;97013.69;10326589;28;20034;-26
2022/07/30 22:22:41;;;;;;;3.60;1.60;;;;;;;21.17;57.11;97018.81;10325359;28;20400;-26
2022/07/30 22:27:42;;;;;;;3.53;1.87;;;;;;;21.16;57.24;97023.09;10321017;28;20030;-26
2022/07/30 22:32:42;;;;;;;1.50;1.40;;;;;;;21.16;57.23;97019.69;10327574;28;20084;-26
2022/07/30 22:37:44;;;;;;;2.55;1.70;;;;;;;21.15;57.22;97021.38;10320844;28;20488;-26
2022/07/30 22:42:44;;;;;;;3.78;2.30;;;;;;;21.19;56.65;97012.88;10328301;28;20409;-26
2022/07/30 22:47:44;;;;;;;3.33;2.03;;;;;;;21.38;55.62;97018.69;10319568;28;20045;-26
2022/07/30 22:52:45;;;;;;;2.20;2.00;;;;;;;21.45;56.22;97011.00;10319392;28;20030;-26
2022/07/30 22:57:45;;;;;;;1.93;1.80;;;;;;;21.33;56.55;97010.22;10327179;28;20042;-26
2022/07/30 23:02:47;;;;;;;1.70;1.60;;;;;;;21.23;56.71;97008.59;10323265;28;20123;-26
2022/07/30 23:07:47;;;;;;;2.83;1.83;;;;;;;21.20;57.15;97004.38;10322121;28;20036;-27
2022/07/30 23:12:49;;;;;;;1.93;1.50;;;;;;;21.18;57.05;97001.00;10326691;28;20046;-26
2022/07/30 23:17:50;;;;;;;2.85;1.60;;;;;;;21.17;57.19;96998.44;10325080;28;20046;-26
2022/07/30 23:22:50;;;;;;;1.50;1.30;;;;;;;21.17;57.43;97001.00;10322297;28;20420;-27
2022/07/30 23:27:50;;;;;;;2.10;1.87;;;;;;;21.15;57.29;97001.00;10324724;28;20110;-26
2022/07/30 23:32:51;;;;;;;1.50;1.40;;;;;;;21.20;56.60;96999.28;10323101;28;20053;-26
2022/07/30 23:37:51;;;;;;;2.50;1.80;;;;;;;21.41;54.62;97001.66;10320748;28;20046;-26